X  Cerrar Datos meteorológicos de aviación METAR     LGRX Patras Araxos Agamemnon Airport
Temperatura
91°F Temperatura
73°F Punto de rocío
56% Humedad



Viento
5 MPH
8 KM/H
2 M/S
4 NUDO



260°
O
Condiciones actuales

Claro Claro
Presión 1008.81 (hPa) - 29.79 (inHg)
Visibilidad 6 (milla) - 9.7 (km)
Aeropuerto
Código de aeropuerto LGRX

localidad: Patras Araxos Agamemnon Airport
Distancia: 41 (mi)

Metar:
LGRX 220820Z 26004KT CAVOK 33/23 Q1009

Hora: 22-07-2024 11:20 EEST